Stanley Corner, South Dakota
Current Conditions -  °F | °C
As of 8:22 PM on Sunday 25 Jan 2015 (Local Time) from KMHE Reporting Station
Scattered Clouds Scattered Clouds  
Wind Chill: 29°   Ceiling: Unl
Heat Index: 34°   Visibility: 10mi
Dew Point: 31°   Wind: 6mph
Humidity: 89%   Direction: 160°SSE
Pressure: 30"   Gusts: NA
Location:  43.5669°N, 97.5001°W
Report Text: KMHE 260222Z AUTO 16005KT 10SM SCT026 01/M01 A3000 RMK AO2 T00111006
Loading
Personal Weather Stations






























Interactive Weather Map New forecast layout! Learn more

10-Day Weather Forecast

Advertisements
Track Severe Weather on mobile